createdAt,value
2018-05-01T00:00:38.268Z,61.52
2018-05-01T00:03:09.503Z,61.47
2018-05-01T00:05:40.276Z,61.68
2018-05-01T00:08:11.233Z,62.07
2018-05-01T00:10:42.200Z,62.60
2018-05-01T00:13:13.314Z,62.78
2018-05-01T00:15:44.171Z,62.99
2018-05-01T00:18:15.721Z,62.97
2018-05-01T00:20:46.424Z,63.04
2018-05-01T00:23:17.240Z,63.55
2018-05-01T00:25:47.878Z,63.84
2018-05-01T00:28:18.844Z,63.96
2018-05-01T00:30:49.538Z,63.78
2018-05-01T00:33:20.266Z,63.93
2018-05-01T00:35:51.192Z,63.73
2018-05-01T00:38:21.812Z,63.70
2018-05-01T00:40:52.574Z,63.62
2018-05-01T00:43:23.647Z,63.85
2018-05-01T00:45:54.329Z,63.81
2018-05-01T00:48:25.242Z,63.49
2018-05-01T00:50:55.794Z,63.54
2018-05-01T00:53:26.557Z,64.02
2018-05-01T00:55:57.263Z,63.98
2018-05-01T00:58:28.160Z,64.16
2018-05-01T01:00:59.175Z,64.09
2018-05-01T01:03:30.155Z,64.14
2018-05-01T01:06:00.721Z,64.18
2018-05-01T01:08:31.467Z,64.39
2018-05-01T01:11:02.243Z,64.45
2018-05-01T01:13:33.210Z,64.53
2018-05-01T01:16:04.487Z,64.60
2018-05-01T01:18:35.822Z,64.64
2018-05-01T01:21:06.442Z,65.54
2018-05-01T01:23:37.244Z,65.42
2018-05-01T01:26:08.186Z,65.51
2018-05-01T01:28:39.261Z,65.83
2018-05-01T01:31:10.162Z,65.81
2018-05-01T01:33:41.303Z,66.26
2018-05-01T01:36:10.774Z,66.52
2018-05-01T01:38:41.102Z,66.37
2018-05-01T01:41:10.475Z,66.21
2018-05-01T01:43:39.797Z,65.98
2018-05-01T01:46:09.298Z,66.03
2018-05-01T01:48:36.996Z,65.91
2018-05-01T01:51:04.593Z,66.03
2018-05-01T01:53:32.499Z,66.02
2018-05-01T01:56:00.501Z,65.97
2018-05-01T01:58:29.008Z,65.94
2018-05-01T02:00:56.632Z,66.05
2018-05-01T02:03:24.614Z,66.23
2018-05-01T02:05:52.551Z,66.50
2018-05-01T02:08:20.436Z,66.82
2018-05-01T02:10:48.363Z,67.16
2018-05-01T02:13:16.004Z,67.22
2018-05-01T02:15:43.616Z,66.86
2018-05-01T02:18:11.563Z,66.69
2018-05-01T02:20:39.829Z,66.62
2018-05-01T02:23:07.482Z,66.57
2018-05-01T02:25:35.484Z,66.52
2018-05-01T02:28:03.382Z,66.60
2018-05-01T02:30:31.004Z,66.71
2018-05-01T02:32:58.956Z,66.86
2018-05-01T02:35:26.567Z,66.99
2018-05-01T02:37:54.500Z,67.29
2018-05-01T02:40:22.475Z,67.26
2018-05-01T02:42:50.370Z,67.23
2018-05-01T02:45:18.274Z,67.34
2018-05-01T02:47:46.316Z,67.45
2018-05-01T02:50:13.907Z,67.57
2018-05-01T02:52:41.513Z,67.40
2018-05-01T02:55:09.189Z,67.49
2018-05-01T02:57:36.806Z,67.24
2018-05-01T03:00:04.459Z,67.25
2018-05-01T03:02:32.438Z,67.29
2018-05-01T03:05:00.330Z,67.20
2018-05-01T03:07:27.910Z,67.09
2018-05-01T03:09:55.838Z,67.10
2018-05-01T03:12:23.471Z,67.22
2018-05-01T03:14:51.424Z,67.01
2018-05-01T03:17:19.393Z,67.06
2018-05-01T03:19:47.288Z,66.86
2018-05-01T03:22:15.561Z,67.20
2018-05-01T03:24:43.884Z,67.22
2018-05-01T03:27:11.495Z,67.43
2018-05-01T03:29:39.399Z,68.78
2018-05-01T03:32:07.614Z,66.90
2018-05-01T03:34:35.230Z,67.32
2018-05-01T03:37:02.880Z,67.29
2018-05-01T03:39:30.528Z,67.14
2018-05-01T03:41:58.148Z,68.48
2018-05-01T03:44:27.807Z,67.76
2018-05-01T03:46:57.462Z,67.75
2018-05-01T03:49:26.722Z,67.65
2018-05-01T03:51:56.310Z,67.80
2018-05-01T03:54:23.964Z,67.96
2018-05-01T03:56:51.584Z,68.19
2018-05-01T03:59:19.461Z,67.47
2018-05-01T04:01:47.450Z,67.33
2018-05-01T04:04:16.782Z,67.30
2018-05-01T04:06:44.525Z,67.33
2018-05-01T04:09:12.610Z,67.40
2018-05-01T04:11:40.480Z,67.40
2018-05-01T04:14:08.370Z,67.51
2018-05-01T04:16:36.036Z,67.65
2018-05-01T04:19:03.645Z,67.66
2018-05-01T04:21:31.501Z,67.91
2018-05-01T04:24:00.401Z,68.19
2018-05-01T04:26:28.310Z,67.98
2018-05-01T04:28:55.916Z,68.12
2018-05-01T04:31:23.864Z,67.76
2018-05-01T04:33:52.078Z,66.93
2018-05-01T04:36:19.705Z,67.21
2018-05-01T04:38:47.515Z,67.36
2018-05-01T04:41:15.396Z,67.65
2018-05-01T04:43:43.312Z,67.44
2018-05-01T04:46:10.997Z,67.31
2018-05-01T04:48:38.600Z,67.32
2018-05-01T04:51:06.457Z,67.35
2018-05-01T04:53:34.419Z,67.32
2018-05-01T04:56:02.316Z,67.02
2018-05-01T04:58:29.991Z,66.76
2018-05-01T05:00:57.816Z,66.85
2018-05-01T05:03:25.520Z,67.25
2018-05-01T05:05:53.378Z,67.35
2018-05-01T05:08:21.056Z,67.16
2018-05-01T05:10:48.676Z,67.19
2018-05-01T05:13:16.402Z,66.71
2018-05-01T05:15:44.199Z,66.36
2018-05-01T05:18:11.811Z,65.89
2018-05-01T05:20:39.479Z,66.09
2018-05-01T05:23:07.438Z,66.75
2018-05-01T05:25:35.178Z,66.63
2018-05-01T05:28:02.809Z,66.68
2018-05-01T05:30:30.504Z,66.59
2018-05-01T05:32:58.478Z,66.48
2018-05-01T05:35:26.463Z,66.45
2018-05-01T05:37:54.366Z,66.20
2018-05-01T05:40:22.265Z,66.29
2018-05-01T05:42:49.806Z,65.95
2018-05-01T05:45:17.430Z,65.74
2018-05-01T05:47:45.030Z,65.54
2018-05-01T05:50:13.214Z,65.87
2018-05-01T05:52:42.416Z,65.63
2018-05-01T05:55:11.806Z,66.11
2018-05-01T05:57:41.117Z,66.55
2018-05-01T06:00:10.012Z,65.12
2018-05-01T06:02:37.614Z,64.84
2018-05-01T06:05:05.799Z,64.31
2018-05-01T06:07:33.508Z,63.70
2018-05-01T06:10:01.452Z,62.75
2018-05-01T06:12:29.725Z,62.03
2018-05-01T06:14:58.479Z,59.97
2018-05-01T06:17:26.357Z,60.62
2018-05-01T06:19:54.029Z,60.04
2018-05-01T06:22:21.662Z,59.88
2018-05-01T06:24:49.959Z,59.29
2018-05-01T06:27:17.549Z,57.81
2018-05-01T06:29:46.346Z,55.87
2018-05-01T06:32:14.393Z,55.23
2018-05-01T06:34:42.294Z,55.70
2018-05-01T06:37:09.907Z,55.43
2018-05-01T06:39:37.578Z,55.21
2018-05-01T06:42:05.495Z,51.83
2018-05-01T06:44:33.423Z,51.59
2018-05-01T06:47:01.349Z,52.25
2018-05-01T06:49:28.962Z,49.37
2018-05-01T06:51:56.589Z,48.67
2018-05-01T06:54:24.279Z,47.54
2018-05-01T06:56:51.873Z,47.79
2018-05-01T06:59:19.533Z,47.67
2018-05-01T07:01:47.527Z,46.55
2018-05-01T07:04:15.460Z,47.89
2018-05-01T07:06:43.768Z,45.72
2018-05-01T07:09:11.422Z,45.11
2018-05-01T07:11:39.303Z,46.01
2018-05-01T07:14:07.620Z,44.87
2018-05-01T07:16:35.440Z,44.42
2018-05-01T07:19:03.334Z,44.52
2018-05-01T07:21:31.287Z,44.23
2018-05-01T07:23:58.914Z,43.82
2018-05-01T07:26:26.530Z,42.33
2018-05-01T07:28:54.447Z,42.63
2018-05-01T07:31:22.338Z,43.31
2018-05-01T07:33:50.266Z,42.29
2018-05-01T07:36:17.937Z,43.18
2018-05-01T07:38:45.549Z,44.32
2018-05-01T07:41:13.895Z,45.40
2018-05-01T07:43:41.536Z,46.14
2018-05-01T07:46:09.720Z,47.07
2018-05-01T07:48:37.337Z,46.77
2018-05-01T07:51:04.926Z,47.58
2018-05-01T07:53:33.174Z,48.63
2018-05-01T07:56:00.787Z,49.17
2018-05-01T07:58:29.323Z,51.60
2018-05-01T08:00:58.541Z,53.66
2018-05-01T08:03:27.914Z,53.03
2018-05-01T08:05:57.325Z,53.56
2018-05-01T08:08:25.021Z,55.26
2018-05-01T08:10:52.662Z,55.91
2018-05-01T08:13:20.487Z,55.95
2018-05-01T08:15:48.486Z,55.80
2018-05-01T08:18:16.370Z,55.36
2018-05-01T08:20:43.975Z,55.51
2018-05-01T08:23:11.875Z,55.91
2018-05-01T08:25:39.503Z,55.92
2018-05-01T08:28:07.395Z,54.93
2018-05-01T08:30:34.889Z,55.54
2018-05-01T08:33:02.829Z,54.25
2018-05-01T08:35:30.461Z,53.53
2018-05-01T08:37:58.411Z,54.24
2018-05-01T08:40:26.326Z,53.61
2018-05-01T08:42:54.355Z,53.21
2018-05-01T08:45:22.266Z,51.90
2018-05-01T08:47:50.410Z,52.27
2018-05-01T08:50:18.303Z,53.17
2018-05-01T08:52:45.977Z,52.64
2018-05-01T08:55:13.588Z,51.85
2018-05-01T08:57:41.510Z,50.68
2018-05-01T09:00:09.464Z,49.98
2018-05-01T09:02:37.390Z,47.48
2018-05-01T09:05:05.652Z,48.04
2018-05-01T09:07:33.914Z,47.85
2018-05-01T09:10:01.528Z,47.44
2018-05-01T09:12:29.523Z,46.28
2018-05-01T09:14:57.469Z,46.06
2018-05-01T09:17:25.382Z,46.05
2018-05-01T09:19:53.118Z,46.53
2018-05-01T09:22:20.743Z,45.22
2018-05-01T09:24:48.483Z,44.91
2018-05-01T09:27:16.452Z,43.94
2018-05-01T09:29:44.392Z,43.06
2018-05-01T09:32:12.023Z,43.55
2018-05-01T09:34:39.966Z,41.68
2018-05-01T09:37:07.411Z,41.63
2018-05-01T09:39:35.319Z,42.33
2018-05-01T09:42:03.273Z,40.78
2018-05-01T09:44:30.871Z,40.34
2018-05-01T09:46:58.470Z,40.47
2018-05-01T09:49:26.422Z,39.27
2018-05-01T09:51:54.674Z,37.56
2018-05-01T09:54:23.777Z,40.04
2018-05-01T09:56:52.805Z,41.07
2018-05-01T09:59:21.771Z,43.62
2018-05-01T10:01:50.858Z,42.27
2018-05-01T10:04:20.885Z,40.42
2018-05-01T10:06:50.146Z,40.52
2018-05-01T10:09:19.834Z,41.38
2018-05-01T10:11:50.269Z,41.69
2018-05-01T10:14:21.572Z,40.47
2018-05-01T10:16:52.257Z,38.63
2018-05-01T10:19:23.185Z,38.80
2018-05-01T10:21:54.283Z,38.84
2018-05-01T10:24:25.351Z,36.36
2018-05-01T10:26:56.275Z,38.30
2018-05-01T10:29:27.173Z,36.13
2018-05-01T10:31:57.934Z,36.20
2018-05-01T10:34:28.543Z,36.65
2018-05-01T10:36:58.542Z,35.90
2018-05-01T10:39:29.241Z,35.51
2018-05-01T10:42:00.225Z,36.50
2018-05-01T10:44:31.233Z,35.46
2018-05-01T10:47:02.290Z,34.36
2018-05-01T10:49:33.242Z,35.89
2018-05-01T10:52:04.424Z,36.90
2018-05-01T10:54:35.263Z,36.93
2018-05-01T10:57:05.853Z,35.96
2018-05-01T10:59:36.632Z,35.40
2018-05-01T11:02:07.351Z,35.86
2018-05-01T11:04:38.394Z,35.17
2018-05-01T11:07:10.087Z,34.19
2018-05-01T11:09:40.419Z,35.18
2018-05-01T11:12:10.571Z,35.77
2018-05-01T11:14:41.270Z,36.40
2018-05-01T11:17:12.416Z,36.72
2018-05-01T11:19:43.189Z,35.45
2018-05-01T11:22:14.479Z,36.42
2018-05-01T11:24:45.262Z,35.60
2018-05-01T11:27:16.366Z,35.15
2018-05-01T11:29:47.150Z,34.09
2018-05-01T11:32:17.766Z,33.59
2018-05-01T11:34:48.466Z,34.48
2018-05-01T11:37:19.633Z,32.96
2018-05-01T11:39:50.295Z,33.13
2018-05-01T11:42:20.840Z,34.06
2018-05-01T11:44:51.633Z,33.51
2018-05-01T11:47:22.744Z,32.46
2018-05-01T11:49:53.526Z,30.99
2018-05-01T11:52:24.389Z,31.84
2018-05-01T11:54:54.450Z,30.81
2018-05-01T11:57:25.243Z,30.49
2018-05-01T11:59:56.129Z,30.53
2018-05-01T12:02:27.257Z,29.97
2018-05-01T12:04:58.155Z,28.82
2018-05-01T12:07:29.509Z,29.42
2018-05-01T12:10:00.215Z,28.85
2018-05-01T12:12:31.181Z,27.83
2018-05-01T12:15:01.759Z,28.20
2018-05-01T12:17:33.443Z,27.88
2018-05-01T12:20:03.918Z,28.41
2018-05-01T12:22:35.446Z,28.88
2018-05-01T12:25:07.201Z,28.92
2018-05-01T12:27:37.845Z,29.08
2018-05-01T12:30:08.519Z,28.56
2018-05-01T12:32:39.316Z,28.99
2018-05-01T12:35:09.824Z,28.44
2018-05-01T12:37:40.528Z,29.37
2018-05-01T12:40:11.462Z,29.49
2018-05-01T12:42:42.589Z,29.43
2018-05-01T12:45:14.188Z,28.77
2018-05-01T12:47:44.763Z,27.80
2018-05-01T12:50:15.424Z,29.24
2018-05-01T12:52:46.288Z,29.64
2018-05-01T12:55:17.254Z,29.56
2018-05-01T12:57:48.260Z,29.91
2018-05-01T13:00:19.163Z,29.76
2018-05-01T13:02:50.272Z,28.15
2018-05-01T13:05:21.140Z,29.50
2018-05-01T13:07:52.554Z,28.43
2018-05-01T13:10:23.314Z,29.18
2018-05-01T13:12:54.459Z,30.16
2018-05-01T13:15:24.591Z,30.23
2018-05-01T13:17:55.363Z,29.89
2018-05-01T13:20:26.184Z,28.96
2018-05-01T13:22:58.929Z,30.32
2018-05-01T13:25:28.808Z,30.46
2018-05-01T13:27:58.932Z,30.26
2018-05-01T13:30:29.890Z,30.43
2018-05-01T13:33:00.867Z,30.46
2018-05-01T13:35:31.543Z,29.55
2018-05-01T13:38:02.351Z,30.55
2018-05-01T13:40:33.419Z,29.57
2018-05-01T13:43:03.954Z,30.07
2018-05-01T13:45:35.599Z,30.52
2018-05-01T13:48:06.680Z,29.92
2018-05-01T13:50:36.622Z,30.34
2018-05-01T13:53:07.489Z,30.51
2018-05-01T13:55:38.220Z,29.68
2018-05-01T13:58:09.247Z,30.51
2018-05-01T14:00:40.689Z,30.37
2018-05-01T14:03:11.774Z,30.45
2018-05-01T14:05:42.456Z,30.86
2018-05-01T14:08:13.375Z,30.98
2018-05-01T14:10:44.175Z,31.37
2018-05-01T14:13:15.270Z,31.74
2018-05-01T14:15:46.278Z,31.71
2018-05-01T14:18:17.904Z,32.18
2018-05-01T14:20:48.983Z,32.34
2018-05-01T14:23:21.457Z,33.31
2018-05-01T14:25:50.770Z,33.01
2018-05-01T14:28:20.698Z,33.06
2018-05-01T14:30:51.477Z,32.87
2018-05-01T14:33:21.453Z,32.66
2018-05-01T14:35:52.308Z,32.86
2018-05-01T14:38:23.708Z,32.76
2018-05-01T14:40:55.986Z,32.85
2018-05-01T14:43:25.854Z,33.10
2018-05-01T14:45:56.652Z,32.99
2018-05-01T14:48:27.373Z,32.57
2018-05-01T14:50:58.279Z,32.89
2018-05-01T14:53:29.232Z,33.21
2018-05-01T14:56:00.418Z,33.42
2018-05-01T14:58:31.214Z,33.52
2018-05-01T15:01:02.294Z,33.42
2018-05-01T15:03:33.179Z,32.97
2018-05-01T15:06:04.233Z,33.39
2018-05-01T15:08:35.200Z,34.06
2018-05-01T15:11:06.207Z,34.10
2018-05-01T15:13:37.229Z,34.11
2018-05-01T15:16:08.441Z,34.73
2018-05-01T15:18:39.140Z,35.05
2018-05-01T15:21:10.439Z,35.48
2018-05-01T15:23:41.146Z,35.55
2018-05-01T15:26:12.223Z,35.54
2018-05-01T15:28:42.920Z,35.89
2018-05-01T15:31:13.302Z,36.16
2018-05-01T15:33:45.150Z,36.46
2018-05-01T15:36:16.312Z,36.56
2018-05-01T15:38:47.442Z,36.94
2018-05-01T15:41:18.259Z,37.39
2018-05-01T15:43:49.266Z,37.61
2018-05-01T15:46:20.310Z,38.06
2018-05-01T15:48:51.226Z,38.32
2018-05-01T15:51:22.226Z,38.37
2018-05-01T15:53:53.189Z,38.43
2018-05-01T15:56:24.178Z,38.42
2018-05-01T15:58:55.186Z,38.32
2018-05-01T16:01:26.233Z,38.43
2018-05-01T16:03:57.246Z,38.83
2018-05-01T16:06:28.306Z,39.01
2018-05-01T16:08:59.127Z,38.92
2018-05-01T16:11:30.279Z,38.90
2018-05-01T16:14:01.187Z,39.08
2018-05-01T16:16:32.236Z,39.15
2018-05-01T16:19:03.144Z,39.26
2018-05-01T16:21:34.516Z,39.53
2018-05-01T16:24:05.405Z,39.63
2018-05-01T16:26:36.253Z,40.00
2018-05-01T16:29:07.200Z,39.88
2018-05-01T16:31:38.030Z,39.40
2018-05-01T16:34:09.033Z,39.77
2018-05-01T16:36:39.755Z,40.00
2018-05-01T16:39:10.445Z,40.03
2018-05-01T16:41:41.254Z,40.09
2018-05-01T16:44:12.203Z,40.33
2018-05-01T16:46:43.468Z,40.69
2018-05-01T16:49:14.252Z,40.73
2018-05-01T16:51:45.191Z,40.90
2018-05-01T16:54:15.752Z,41.30
2018-05-01T16:56:46.457Z,41.79
2018-05-01T16:59:17.357Z,42.17
2018-05-01T17:01:48.269Z,42.24
2018-05-01T17:04:19.186Z,42.51
2018-05-01T17:06:50.292Z,43.18
2018-05-01T17:09:21.074Z,43.38
2018-05-01T17:11:52.250Z,43.48
2018-05-01T17:14:23.112Z,43.38
2018-05-01T17:16:54.241Z,43.26
2018-05-01T17:19:24.770Z,43.19
2018-05-01T17:21:55.627Z,43.29
2018-05-01T17:24:26.382Z,43.33
2018-05-01T17:26:57.144Z,43.38
2018-05-01T17:29:28.218Z,43.45
2018-05-01T17:31:59.931Z,43.50
2018-05-01T17:34:30.720Z,43.58
2018-05-01T17:37:01.457Z,43.73
2018-05-01T17:39:32.270Z,44.37
2018-05-01T17:42:03.899Z,44.85
2018-05-01T17:44:34.681Z,44.98
2018-05-01T17:47:05.508Z,45.53
2018-05-01T17:49:36.293Z,45.68
2018-05-01T17:52:07.327Z,46.02
2018-05-01T17:54:38.329Z,46.12
2018-05-01T18:00:00.871Z,46.20
2018-05-01T18:02:29.870Z,46.23
2018-05-01T18:04:58.882Z,46.33
2018-05-01T18:07:27.977Z,46.41
2018-05-01T18:09:57.256Z,46.45
2018-05-01T18:12:26.233Z,46.55
2018-05-01T18:14:56.001Z,46.67
2018-05-01T18:17:25.554Z,47.21
2018-05-01T18:19:54.555Z,47.84
2018-05-01T18:22:23.585Z,48.31
2018-05-01T18:24:52.555Z,48.47
2018-05-01T18:27:21.538Z,48.24
2018-05-01T18:29:50.546Z,47.90
2018-05-01T18:32:20.632Z,47.77
2018-05-01T18:34:51.321Z,47.89
2018-05-01T18:37:21.985Z,48.10
2018-05-01T18:39:52.698Z,48.23
2018-05-01T18:42:23.410Z,48.28
2018-05-01T18:44:54.495Z,48.45
2018-05-01T18:47:25.996Z,48.50
2018-05-01T18:49:55.806Z,48.47
2018-05-01T18:52:28.269Z,48.47
2018-05-01T18:54:57.911Z,48.51
2018-05-01T18:57:28.473Z,48.86
2018-05-01T18:59:59.271Z,49.12
2018-05-01T19:02:30.157Z,49.43
2018-05-01T19:05:01.364Z,49.14
2018-05-01T19:07:32.322Z,49.00
2018-05-01T19:10:11.934Z,49.11
2018-05-01T19:12:41.426Z,48.50
2018-05-01T19:15:10.879Z,48.36
2018-05-01T19:17:41.244Z,48.54
2018-05-01T19:20:10.114Z,48.48
2018-05-01T19:22:39.871Z,48.45
2018-05-01T19:25:10.823Z,48.60
2018-05-01T19:27:41.146Z,48.81
2018-05-01T19:30:12.230Z,48.77
2018-05-01T19:32:44.931Z,48.76
2018-05-01T19:35:14.339Z,48.81
2018-05-01T19:37:44.971Z,48.85
2018-05-01T19:40:16.025Z,48.97
2018-05-01T19:42:47.115Z,49.19
2018-05-01T19:45:18.797Z,49.29
2018-05-01T19:47:49.046Z,49.27
2018-05-01T19:50:20.211Z,49.51
2018-05-01T19:52:51.130Z,49.86
2018-05-01T19:55:21.969Z,50.10
2018-05-01T19:57:52.335Z,50.17
2018-05-01T20:00:23.900Z,50.71
2018-05-01T20:02:54.876Z,50.49
2018-05-01T20:05:25.562Z,50.51
2018-05-01T20:07:55.445Z,50.46
2018-05-01T20:10:27.652Z,50.65
2018-05-01T20:12:56.868Z,50.57
2018-05-01T20:15:28.015Z,50.44
2018-05-01T20:17:59.201Z,50.34
2018-05-01T20:20:30.535Z,50.36
2018-05-01T20:23:01.572Z,50.46
2018-05-01T20:25:32.584Z,51.18
2018-05-01T20:28:03.277Z,51.33
2018-05-01T20:30:34.606Z,51.01
2018-05-01T20:33:05.152Z,51.19
2018-05-01T20:35:35.883Z,51.41
2018-05-01T20:38:06.890Z,51.20
2018-05-01T20:40:38.007Z,51.48
2018-05-01T20:43:08.976Z,51.84
2018-05-01T20:45:40.528Z,52.21
2018-05-01T20:48:11.540Z,52.57
2018-05-01T20:50:41.122Z,52.86
2018-05-01T20:53:12.223Z,53.19
2018-05-01T20:55:43.821Z,53.56
2018-05-01T20:58:14.381Z,54.09
2018-05-01T21:00:44.091Z,54.52
2018-05-01T21:03:15.071Z,55.03
2018-05-01T21:05:46.196Z,55.57
2018-05-01T21:08:15.320Z,55.90
2018-05-01T21:10:46.333Z,56.12
2018-05-01T21:13:16.958Z,56.47
2018-05-01T21:15:47.869Z,57.07
2018-05-01T21:18:19.266Z,57.07
2018-05-01T21:20:50.005Z,56.87
2018-05-01T21:23:21.305Z,57.21
2018-05-01T21:25:52.344Z,57.23
2018-05-01T21:28:23.396Z,57.63
2018-05-01T21:30:54.241Z,58.34
2018-05-01T21:33:25.375Z,59.28
2018-05-01T21:35:56.430Z,59.06
2018-05-01T21:38:27.406Z,59.10
2018-05-01T21:40:58.078Z,58.75
2018-05-01T21:43:29.687Z,58.15
2018-05-01T21:46:01.012Z,57.48
2018-05-01T21:48:31.805Z,56.46
2018-05-01T21:51:01.764Z,55.26
2018-05-01T21:53:32.534Z,55.94
2018-05-01T21:56:03.234Z,55.74
2018-05-01T21:58:34.436Z,55.75
2018-05-01T22:01:05.163Z,55.34
2018-05-01T22:03:35.836Z,55.46
2018-05-01T22:06:06.522Z,55.54
2018-05-01T22:08:37.230Z,55.25
2018-05-01T22:11:08.167Z,55.34
2018-05-01T22:13:39.177Z,55.84
2018-05-01T22:16:10.198Z,55.56
2018-05-01T22:18:41.157Z,55.25
2018-05-01T22:21:12.146Z,55.04
2018-05-01T22:23:43.245Z,54.93
2018-05-01T22:26:14.133Z,55.16
2018-05-01T22:28:45.273Z,55.78
2018-05-01T22:31:16.130Z,55.98
2018-05-01T22:33:46.782Z,56.42
2018-05-01T22:36:17.290Z,56.14
2018-05-01T22:38:48.313Z,55.99
2018-05-01T22:41:18.704Z,55.31
2018-05-01T22:43:49.443Z,55.09
2018-05-01T22:46:20.126Z,55.46
2018-05-01T22:48:51.195Z,55.98
2018-05-01T22:51:22.414Z,56.00
2018-05-01T22:53:53.207Z,55.91
2018-05-01T22:56:24.206Z,55.81
2018-05-01T22:58:55.200Z,55.84
2018-05-01T23:01:26.519Z,55.93
2018-05-01T23:03:57.233Z,55.65
2018-05-01T23:06:28.079Z,55.82
2018-05-01T23:08:59.165Z,56.11
2018-05-01T23:11:30.130Z,55.23
2018-05-01T23:14:01.055Z,55.18
2018-05-01T23:16:31.653Z,54.96
2018-05-01T23:19:02.374Z,54.43
2018-05-01T23:21:33.205Z,54.43
2018-05-01T23:24:03.738Z,54.18
2018-05-01T23:26:34.370Z,54.19
2018-05-01T23:29:05.177Z,54.05
2018-05-01T23:31:35.816Z,53.72
2018-05-01T23:34:06.253Z,53.67
2018-05-01T23:36:37.105Z,53.32
2018-05-01T23:39:08.481Z,53.15
2018-05-01T23:41:39.225Z,52.99
2018-05-01T23:44:10.222Z,52.70
2018-05-01T23:46:41.167Z,52.71
2018-05-01T23:49:11.990Z,52.71
2018-05-01T23:51:42.654Z,53.02
2018-05-01T23:54:12.583Z,52.80
2018-05-01T23:56:43.211Z,52.64
2018-05-01T23:59:14.193Z,52.53
